sensor_id;sensor_type;location;lat;lon;timestamp;temperature;humidity
23783;DHT22;12071;50.850;4.446;2023-01-09T00:02:09;7.50;1.00
23783;DHT22;12071;50.850;4.446;2023-01-09T00:04:35;7.40;1.00
23783;DHT22;12071;50.850;4.446;2023-01-09T00:07:00;7.40;1.00
23783;DHT22;12071;50.850;4.446;2023-01-09T00:09:26;7.40;1.00
23783;DHT22;12071;50.850;4.446;2023-01-09T00:11:52;7.40;1.00
23783;DHT22;12071;50.850;4.446;2023-01-09T00:14:20;7.40;1.00
23783;DHT22;12071;50.850;4.446;2023-01-09T00:16:47;7.30;1.00
23783;DHT22;12071;50.850;4.446;2023-01-09T00:19:13;7.40;1.00
23783;DHT22;12071;50.850;4.446;2023-01-09T00:21:38;7.50;1.00
23783;DHT22;12071;50.850;4.446;2023-01-09T00:24:04;7.40;1.00
23783;DHT22;12071;50.850;4.446;2023-01-09T00:26:30;7.40;1.00
23783;DHT22;12071;50.850;4.446;2023-01-09T00:28:56;7.40;1.00
23783;DHT22;12071;50.850;4.446;2023-01-09T00:31:22;7.40;1.00
23783;DHT22;12071;50.850;4.446;2023-01-09T00:34:02;7.40;1.00
23783;DHT22;12071;50.850;4.446;2023-01-09T00:36:29;7.40;1.00
23783;DHT22;12071;50.850;4.446;2023-01-09T00:38:55;7.30;1.00
23783;DHT22;12071;50.850;4.446;2023-01-09T00:43:57;7.30;1.00
23783;DHT22;12071;50.850;4.446;2023-01-09T00:46:30;7.20;1.00
23783;DHT22;12071;50.850;4.446;2023-01-09T00:48:58;7.30;1.00
23783;DHT22;12071;50.850;4.446;2023-01-09T00:51:24;7.20;1.00
23783;DHT22;12071;50.850;4.446;2023-01-09T00:53:51;7.20;1.00
23783;DHT22;12071;50.850;4.446;2023-01-09T00:56:18;7.20;1.00
23783;DHT22;12071;50.850;4.446;2023-01-09T00:58:44;7.20;1.00
23783;DHT22;12071;50.850;4.446;2023-01-09T01:01:10;7.10;1.00
23783;DHT22;12071;50.850;4.446;2023-01-09T01:03:37;7.20;1.00
23783;DHT22;12071;50.850;4.446;2023-01-09T01:06:03;7.30;1.00
23783;DHT22;12071;50.850;4.446;2023-01-09T01:08:47;7.20;1.00
23783;DHT22;12071;50.850;4.446;2023-01-09T01:11:13;7.10;1.00
23783;DHT22;12071;50.850;4.446;2023-01-09T01:13:40;7.10;1.00
23783;DHT22;12071;50.850;4.446;2023-01-09T01:16:07;7.20;1.00
23783;DHT22;12071;50.850;4.446;2023-01-09T01:18:34;7.20;1.00
23783;DHT22;12071;50.850;4.446;2023-01-09T01:20:59;7.10;1.00
23783;DHT22;12071;50.850;4.446;2023-01-09T01:23:25;7.10;1.00
23783;DHT22;12071;50.850;4.446;2023-01-09T01:25:51;7.20;1.00
23783;DHT22;12071;50.850;4.446;2023-01-09T01:28:17;7.10;1.00
23783;DHT22;12071;50.850;4.446;2023-01-09T01:30:43;7.20;1.00
23783;DHT22;12071;50.850;4.446;2023-01-09T01:33:09;7.20;1.00
23783;DHT22;12071;50.850;4.446;2023-01-09T01:35:35;7.20;1.00
23783;DHT22;12071;50.850;4.446;2023-01-09T01:38:01;7.10;1.00
23783;DHT22;12071;50.850;4.446;2023-01-09T01:40:27;7.10;1.00
23783;DHT22;12071;50.850;4.446;2023-01-09T01:42:54;7.00;1.00
23783;DHT22;12071;50.850;4.446;2023-01-09T01:47:56;7.00;1.00
23783;DHT22;12071;50.850;4.446;2023-01-09T01:50:34;7.00;1.00
23783;DHT22;12071;50.850;4.446;2023-01-09T01:53:21;7.10;1.00
23783;DHT22;12071;50.850;4.446;2023-01-09T01:56:37;7.10;1.00
23783;DHT22;12071;50.850;4.446;2023-01-09T01:58:49;7.10;1.00
23783;DHT22;12071;50.850;4.446;2023-01-09T02:01:16;7.00;1.00
23783;DHT22;12071;50.850;4.446;2023-01-09T02:03:42;7.00;1.00
23783;DHT22;12071;50.850;4.446;2023-01-09T02:06:09;7.10;1.00
23783;DHT22;12071;50.850;4.446;2023-01-09T02:08:36;7.20;1.00
23783;DHT22;12071;50.850;4.446;2023-01-09T02:11:02;7.30;1.00
23783;DHT22;12071;50.850;4.446;2023-01-09T02:13:29;7.30;1.00
23783;DHT22;12071;50.850;4.446;2023-01-09T02:18:40;7.30;1.00
23783;DHT22;12071;50.850;4.446;2023-01-09T02:24:06;7.40;1.00
23783;DHT22;12071;50.850;4.446;2023-01-09T02:41:12;7.40;99.90
23783;DHT22;12071;50.850;4.446;2023-01-09T02:43:39;7.70;99.90
23783;DHT22;12071;50.850;4.446;2023-01-09T02:46:20;7.70;99.90
23783;DHT22;12071;50.850;4.446;2023-01-09T02:48:49;7.60;99.90
23783;DHT22;12071;50.850;4.446;2023-01-09T03:08:59;7.70;99.90
23783;DHT22;12071;50.850;4.446;2023-01-09T03:11:27;7.80;99.90
23783;DHT22;12071;50.850;4.446;2023-01-09T03:13:57;7.80;99.90
23783;DHT22;12071;50.850;4.446;2023-01-09T03:16:34;7.80;99.90
23783;DHT22;12071;50.850;4.446;2023-01-09T03:19:02;7.90;99.90
23783;DHT22;12071;50.850;4.446;2023-01-09T03:21:30;7.80;99.90
23783;DHT22;12071;50.850;4.446;2023-01-09T03:24:00;7.90;99.90
23783;DHT22;12071;50.850;4.446;2023-01-09T03:26:27;7.80;99.90
23783;DHT22;12071;50.850;4.446;2023-01-09T03:28:57;7.70;99.90
23783;DHT22;12071;50.850;4.446;2023-01-09T03:31:23;7.70;99.90
23783;DHT22;12071;50.850;4.446;2023-01-09T03:33:49;7.70;99.90
23783;DHT22;12071;50.850;4.446;2023-01-09T03:36:17;7.60;99.90
23783;DHT22;12071;50.850;4.446;2023-01-09T03:38:43;7.50;99.90
23783;DHT22;12071;50.850;4.446;2023-01-09T03:41:09;7.70;99.90
23783;DHT22;12071;50.850;4.446;2023-01-09T03:43:35;7.70;99.90
23783;DHT22;12071;50.850;4.446;2023-01-09T03:46:00;7.70;99.90
23783;DHT22;12071;50.850;4.446;2023-01-09T03:48:26;7.70;99.90
23783;DHT22;12071;50.850;4.446;2023-01-09T03:50:53;7.60;99.90
23783;DHT22;12071;50.850;4.446;2023-01-09T03:53:20;7.60;99.90
23783;DHT22;12071;50.850;4.446;2023-01-09T03:55:48;7.70;99.90
23783;DHT22;12071;50.850;4.446;2023-01-09T03:58:15;7.70;99.90
23783;DHT22;12071;50.850;4.446;2023-01-09T04:00:41;7.80;99.90
23783;DHT22;12071;50.850;4.446;2023-01-09T04:03:08;7.70;99.90
23783;DHT22;12071;50.850;4.446;2023-01-09T04:05:34;7.80;99.90
23783;DHT22;12071;50.850;4.446;2023-01-09T04:08:00;7.80;99.90
23783;DHT22;12071;50.850;4.446;2023-01-09T04:10:26;7.90;99.90
23783;DHT22;12071;50.850;4.446;2023-01-09T04:12:51;7.90;99.90
23783;DHT22;12071;50.850;4.446;2023-01-09T04:15:17;7.90;99.90
23783;DHT22;12071;50.850;4.446;2023-01-09T04:17:42;7.90;99.90
23783;DHT22;12071;50.850;4.446;2023-01-09T04:20:09;7.90;99.90
23783;DHT22;12071;50.850;4.446;2023-01-09T04:22:35;8.00;99.90
23783;DHT22;12071;50.850;4.446;2023-01-09T04:25:01;8.00;99.90
23783;DHT22;12071;50.850;4.446;2023-01-09T04:27:26;8.00;99.90
23783;DHT22;12071;50.850;4.446;2023-01-09T04:29:52;8.00;99.90
23783;DHT22;12071;50.850;4.446;2023-01-09T04:32:18;8.00;99.90
23783;DHT22;12071;50.850;4.446;2023-01-09T04:34:43;8.00;99.90
23783;DHT22;12071;50.850;4.446;2023-01-09T04:37:09;8.10;99.90
23783;DHT22;12071;50.850;4.446;2023-01-09T04:39:34;8.10;99.90
23783;DHT22;12071;50.850;4.446;2023-01-09T04:42:02;8.10;99.90
23783;DHT22;12071;50.850;4.446;2023-01-09T04:44:27;8.10;99.90
23783;DHT22;12071;50.850;4.446;2023-01-09T04:46:55;8.10;99.90
23783;DHT22;12071;50.850;4.446;2023-01-09T04:49:21;8.10;99.90
23783;DHT22;12071;50.850;4.446;2023-01-09T04:51:47;8.20;99.90
23783;DHT22;12071;50.850;4.446;2023-01-09T04:54:13;8.10;99.90
23783;DHT22;12071;50.850;4.446;2023-01-09T04:56:40;8.10;99.90
23783;DHT22;12071;50.850;4.446;2023-01-09T04:59:06;8.10;99.90
23783;DHT22;12071;50.850;4.446;2023-01-09T05:01:33;8.20;99.90
23783;DHT22;12071;50.850;4.446;2023-01-09T05:03:59;8.20;99.90
23783;DHT22;12071;50.850;4.446;2023-01-09T05:06:24;8.30;99.90
23783;DHT22;12071;50.850;4.446;2023-01-09T05:08:50;8.20;99.90
23783;DHT22;12071;50.850;4.446;2023-01-09T05:11:16;8.30;99.90
23783;DHT22;12071;50.850;4.446;2023-01-09T05:13:42;8.30;99.90
23783;DHT22;12071;50.850;4.446;2023-01-09T05:16:07;8.30;99.90
23783;DHT22;12071;50.850;4.446;2023-01-09T05:18:33;8.30;99.90
23783;DHT22;12071;50.850;4.446;2023-01-09T05:20:59;8.20;99.90
23783;DHT22;12071;50.850;4.446;2023-01-09T05:23:24;8.20;99.90
23783;DHT22;12071;50.850;4.446;2023-01-09T05:25:50;8.20;99.90
23783;DHT22;12071;50.850;4.446;2023-01-09T05:28:16;8.30;99.90
23783;DHT22;12071;50.850;4.446;2023-01-09T05:30:41;8.30;99.90
23783;DHT22;12071;50.850;4.446;2023-01-09T05:33:07;8.20;99.90
23783;DHT22;12071;50.850;4.446;2023-01-09T05:35:33;8.10;99.90
23783;DHT22;12071;50.850;4.446;2023-01-09T05:37:58;8.10;99.90
23783;DHT22;12071;50.850;4.446;2023-01-09T05:40:24;8.10;99.90
23783;DHT22;12071;50.850;4.446;2023-01-09T05:42:50;8.20;99.90
23783;DHT22;12071;50.850;4.446;2023-01-09T05:45:15;8.10;99.90
23783;DHT22;12071;50.850;4.446;2023-01-09T05:47:43;8.10;99.90
23783;DHT22;12071;50.850;4.446;2023-01-09T05:50:09;8.10;99.90
23783;DHT22;12071;50.850;4.446;2023-01-09T05:52:35;8.10;99.90
23783;DHT22;12071;50.850;4.446;2023-01-09T05:55:01;8.10;99.90
23783;DHT22;12071;50.850;4.446;2023-01-09T05:57:27;8.10;99.90
23783;DHT22;12071;50.850;4.446;2023-01-09T05:59:53;8.10;99.90
23783;DHT22;12071;50.850;4.446;2023-01-09T06:02:19;8.20;99.90
23783;DHT22;12071;50.850;4.446;2023-01-09T06:04:44;8.20;99.90
23783;DHT22;12071;50.850;4.446;2023-01-09T06:07:10;8.20;99.90
23783;DHT22;12071;50.850;4.446;2023-01-09T06:09:36;8.20;99.90
23783;DHT22;12071;50.850;4.446;2023-01-09T06:12:01;8.20;99.90
23783;DHT22;12071;50.850;4.446;2023-01-09T06:14:27;8.30;99.90
23783;DHT22;12071;50.850;4.446;2023-01-09T06:16:54;8.20;99.90
23783;DHT22;12071;50.850;4.446;2023-01-09T06:19:19;8.20;99.90
23783;DHT22;12071;50.850;4.446;2023-01-09T06:21:45;8.30;99.90
23783;DHT22;12071;50.850;4.446;2023-01-09T06:24:10;8.30;99.90
23783;DHT22;12071;50.850;4.446;2023-01-09T06:26:36;8.20;99.90
23783;DHT22;12071;50.850;4.446;2023-01-09T06:29:01;8.20;99.90
23783;DHT22;12071;50.850;4.446;2023-01-09T06:31:27;8.20;99.90
23783;DHT22;12071;50.850;4.446;2023-01-09T06:33:53;8.20;99.90
23783;DHT22;12071;50.850;4.446;2023-01-09T06:36:19;8.20;99.90
23783;DHT22;12071;50.850;4.446;2023-01-09T06:38:44;8.10;99.90
23783;DHT22;12071;50.850;4.446;2023-01-09T06:41:10;8.10;99.90
23783;DHT22;12071;50.850;4.446;2023-01-09T06:43:36;8.20;99.90
23783;DHT22;12071;50.850;4.446;2023-01-09T06:46:01;8.20;99.90
23783;DHT22;12071;50.850;4.446;2023-01-09T06:48:30;8.10;99.90
23783;DHT22;12071;50.850;4.446;2023-01-09T06:50:55;8.20;99.90
23783;DHT22;12071;50.850;4.446;2023-01-09T06:53:21;8.20;99.90
23783;DHT22;12071;50.850;4.446;2023-01-09T06:55:47;8.20;99.90
23783;DHT22;12071;50.850;4.446;2023-01-09T06:58:12;8.20;99.90
23783;DHT22;12071;50.850;4.446;2023-01-09T07:00:38;8.10;99.90
23783;DHT22;12071;50.850;4.446;2023-01-09T07:03:04;8.10;99.90
23783;DHT22;12071;50.850;4.446;2023-01-09T07:05:30;8.20;99.90
23783;DHT22;12071;50.850;4.446;2023-01-09T07:07:57;8.30;99.90
23783;DHT22;12071;50.850;4.446;2023-01-09T07:10:23;8.30;99.90
23783;DHT22;12071;50.850;4.446;2023-01-09T07:12:48;8.40;99.90
23783;DHT22;12071;50.850;4.446;2023-01-09T07:15:14;8.30;99.90
23783;DHT22;12071;50.850;4.446;2023-01-09T07:17:40;8.20;99.90
23783;DHT22;12071;50.850;4.446;2023-01-09T07:20:06;8.20;99.90
23783;DHT22;12071;50.850;4.446;2023-01-09T07:22:32;8.20;99.90
23783;DHT22;12071;50.850;4.446;2023-01-09T07:24:57;8.10;99.90
23783;DHT22;12071;50.850;4.446;2023-01-09T07:27:23;8.10;99.90
23783;DHT22;12071;50.850;4.446;2023-01-09T07:29:49;8.20;99.90
23783;DHT22;12071;50.850;4.446;2023-01-09T07:32:15;8.10;99.90
23783;DHT22;12071;50.850;4.446;2023-01-09T07:34:41;8.10;99.90
23783;DHT22;12071;50.850;4.446;2023-01-09T07:37:07;8.20;99.90
23783;DHT22;12071;50.850;4.446;2023-01-09T07:39:32;8.20;99.90
23783;DHT22;12071;50.850;4.446;2023-01-09T07:41:58;8.20;99.90
23783;DHT22;12071;50.850;4.446;2023-01-09T07:44:23;8.10;99.90
23783;DHT22;12071;50.850;4.446;2023-01-09T07:46:49;8.10;99.90
23783;DHT22;12071;50.850;4.446;2023-01-09T07:49:14;8.10;99.90
23783;DHT22;12071;50.850;4.446;2023-01-09T07:51:40;8.00;99.90
23783;DHT22;12071;50.850;4.446;2023-01-09T07:54:08;8.00;99.90
23783;DHT22;12071;50.850;4.446;2023-01-09T07:56:34;8.00;99.90
23783;DHT22;12071;50.850;4.446;2023-01-09T07:59:00;8.10;99.90
23783;DHT22;12071;50.850;4.446;2023-01-09T08:01:25;7.90;99.90
23783;DHT22;12071;50.850;4.446;2023-01-09T08:03:51;8.00;99.90
23783;DHT22;12071;50.850;4.446;2023-01-09T08:06:17;7.90;99.90
23783;DHT22;12071;50.850;4.446;2023-01-09T08:08:42;8.00;99.90
23783;DHT22;12071;50.850;4.446;2023-01-09T08:11:08;8.00;99.90
23783;DHT22;12071;50.850;4.446;2023-01-09T08:13:33;7.90;99.90
23783;DHT22;12071;50.850;4.446;2023-01-09T08:15:59;8.00;99.90
23783;DHT22;12071;50.850;4.446;2023-01-09T08:18:25;7.90;99.90
23783;DHT22;12071;50.850;4.446;2023-01-09T08:20:50;7.90;99.90
23783;DHT22;12071;50.850;4.446;2023-01-09T08:23:16;7.90;99.90
23783;DHT22;12071;50.850;4.446;2023-01-09T08:25:42;8.00;99.90
23783;DHT22;12071;50.850;4.446;2023-01-09T08:28:07;7.90;99.90
23783;DHT22;12071;50.850;4.446;2023-01-09T08:30:37;8.00;99.90
23783;DHT22;12071;50.850;4.446;2023-01-09T08:33:03;8.00;99.90
23783;DHT22;12071;50.850;4.446;2023-01-09T08:35:28;8.00;99.90
23783;DHT22;12071;50.850;4.446;2023-01-09T08:37:54;8.10;99.90
23783;DHT22;12071;50.850;4.446;2023-01-09T08:40:20;8.00;99.90
23783;DHT22;12071;50.850;4.446;2023-01-09T08:42:45;8.00;99.90
23783;DHT22;12071;50.850;4.446;2023-01-09T08:45:30;8.00;99.90
23783;DHT22;12071;50.850;4.446;2023-01-09T08:48:15;8.10;99.90
23783;DHT22;12071;50.850;4.446;2023-01-09T08:50:41;8.20;99.90
23783;DHT22;12071;50.850;4.446;2023-01-09T08:53:08;8.10;99.90
23783;DHT22;12071;50.850;4.446;2023-01-09T08:55:33;8.10;99.90
23783;DHT22;12071;50.850;4.446;2023-01-09T08:57:59;7.90;99.90
23783;DHT22;12071;50.850;4.446;2023-01-09T09:00:25;7.90;99.90
23783;DHT22;12071;50.850;4.446;2023-01-09T09:02:56;7.80;99.90
23783;DHT22;12071;50.850;4.446;2023-01-09T09:05:23;7.80;99.90
23783;DHT22;12071;50.850;4.446;2023-01-09T09:07:52;7.90;99.90
23783;DHT22;12071;50.850;4.446;2023-01-09T09:10:26;7.80;99.90
23783;DHT22;12071;50.850;4.446;2023-01-09T09:12:54;7.80;99.90
23783;DHT22;12071;50.850;4.446;2023-01-09T09:15:20;7.80;99.90
23783;DHT22;12071;50.850;4.446;2023-01-09T09:17:56;7.80;99.90
23783;DHT22;12071;50.850;4.446;2023-01-09T09:20:24;7.90;99.90
23783;DHT22;12071;50.850;4.446;2023-01-09T09:22:51;7.90;99.90
23783;DHT22;12071;50.850;4.446;2023-01-09T09:25:17;7.90;99.90
23783;DHT22;12071;50.850;4.446;2023-01-09T09:27:43;7.90;99.90
23783;DHT22;12071;50.850;4.446;2023-01-09T09:30:10;7.90;99.90
23783;DHT22;12071;50.850;4.446;2023-01-09T09:32:37;7.80;99.90
23783;DHT22;12071;50.850;4.446;2023-01-09T09:35:03;7.80;99.90
23783;DHT22;12071;50.850;4.446;2023-01-09T09:37:29;7.90;99.90
23783;DHT22;12071;50.850;4.446;2023-01-09T09:39:56;7.80;99.90
23783;DHT22;12071;50.850;4.446;2023-01-09T09:45:42;7.80;99.90
23783;DHT22;12071;50.850;4.446;2023-01-09T09:48:34;7.80;99.90
23783;DHT22;12071;50.850;4.446;2023-01-09T09:55:59;7.80;99.90
23783;DHT22;12071;50.850;4.446;2023-01-09T09:58:37;7.70;99.90
23783;DHT22;12071;50.850;4.446;2023-01-09T10:01:04;7.80;99.90
23783;DHT22;12071;50.850;4.446;2023-01-09T10:03:37;7.70;99.90
23783;DHT22;12071;50.850;4.446;2023-01-09T10:06:14;7.70;99.90
23783;DHT22;12071;50.850;4.446;2023-01-09T10:08:58;7.80;99.90
23783;DHT22;12071;50.850;4.446;2023-01-09T10:12:07;7.60;99.90
23783;DHT22;12071;50.850;4.446;2023-01-09T10:14:35;7.70;99.90
23783;DHT22;12071;50.850;4.446;2023-01-09T10:38:45;7.80;99.90
23783;DHT22;12071;50.850;4.446;2023-01-09T10:41:24;7.70;99.90
23783;DHT22;12071;50.850;4.446;2023-01-09T10:46:57;8.00;99.90
23783;DHT22;12071;50.850;4.446;2023-01-09T10:49:23;8.00;99.90
23783;DHT22;12071;50.850;4.446;2023-01-09T10:52:13;7.90;99.90
23783;DHT22;12071;50.850;4.446;2023-01-09T10:54:41;7.80;99.90
23783;DHT22;12071;50.850;4.446;2023-01-09T10:57:13;7.80;99.90
23783;DHT22;12071;50.850;4.446;2023-01-09T10:59:41;8.00;99.90
23783;DHT22;12071;50.850;4.446;2023-01-09T11:02:34;7.80;99.90
23783;DHT22;12071;50.850;4.446;2023-01-09T11:05:00;7.90;99.90
23783;DHT22;12071;50.850;4.446;2023-01-09T11:07:28;7.90;99.90
23783;DHT22;12071;50.850;4.446;2023-01-09T11:10:04;8.00;99.90
23783;DHT22;12071;50.850;4.446;2023-01-09T11:12:33;8.10;99.90
23783;DHT22;12071;50.850;4.446;2023-01-09T11:17:51;7.90;99.90
23783;DHT22;12071;50.850;4.446;2023-01-09T11:20:24;7.80;99.90
23783;DHT22;12071;50.850;4.446;2023-01-09T11:22:57;7.80;99.90
23783;DHT22;12071;50.850;4.446;2023-01-09T11:25:27;7.80;99.90
23783;DHT22;12071;50.850;4.446;2023-01-09T11:30:29;7.90;99.90
23783;DHT22;12071;50.850;4.446;2023-01-09T11:32:58;8.00;99.90
23783;DHT22;12071;50.850;4.446;2023-01-09T11:35:31;8.10;99.90
23783;DHT22;12071;50.850;4.446;2023-01-09T11:38:17;8.00;99.90
23783;DHT22;12071;50.850;4.446;2023-01-09T11:40:51;7.90;99.90
23783;DHT22;12071;50.850;4.446;2023-01-09T11:43:33;7.90;99.90
23783;DHT22;12071;50.850;4.446;2023-01-09T11:46:03;7.90;99.90
23783;DHT22;12071;50.850;4.446;2023-01-09T11:51:02;8.00;99.90
23783;DHT22;12071;50.850;4.446;2023-01-09T11:53:28;8.00;99.90
23783;DHT22;12071;50.850;4.446;2023-01-09T11:56:08;7.90;99.90
23783;DHT22;12071;50.850;4.446;2023-01-09T11:58:34;7.90;99.90
23783;DHT22;12071;50.850;4.446;2023-01-09T12:09:46;8.50;99.90
23783;DHT22;12071;50.850;4.446;2023-01-09T12:12:23;8.50;99.90
23783;DHT22;12071;50.850;4.446;2023-01-09T12:20:32;8.30;99.90
23783;DHT22;12071;50.850;4.446;2023-01-09T12:23:23;8.30;99.90
23783;DHT22;12071;50.850;4.446;2023-01-09T12:28:56;8.50;99.90
23783;DHT22;12071;50.850;4.446;2023-01-09T12:31:47;8.50;99.90
23783;DHT22;12071;50.850;4.446;2023-01-09T12:40:03;8.40;99.90
23783;DHT22;12071;50.850;4.446;2023-01-09T12:53:48;8.60;99.90
23783;DHT22;12071;50.850;4.446;2023-01-09T12:56:19;8.70;99.90
23783;DHT22;12071;50.850;4.446;2023-01-09T12:58:52;8.90;99.90
23783;DHT22;12071;50.850;4.446;2023-01-09T13:01:30;9.00;99.90
23783;DHT22;12071;50.850;4.446;2023-01-09T13:04:17;8.80;99.90
23783;DHT22;12071;50.850;4.446;2023-01-09T13:06:47;9.00;99.90
23783;DHT22;12071;50.850;4.446;2023-01-09T13:12:22;9.20;99.90
23783;DHT22;12071;50.850;4.446;2023-01-09T13:14:58;9.30;99.90
23783;DHT22;12071;50.850;4.446;2023-01-09T13:20:00;9.10;97.10
23783;DHT22;12071;50.850;4.446;2023-01-09T13:22:27;9.10;99.90
23783;DHT22;12071;50.850;4.446;2023-01-09T13:27:40;9.30;99.90
23783;DHT22;12071;50.850;4.446;2023-01-09T13:30:21;9.20;98.30
23783;DHT22;12071;50.850;4.446;2023-01-09T13:32:58;9.40;60.20
23783;DHT22;12071;50.850;4.446;2023-01-09T13:35:26;9.80;41.90
23783;DHT22;12071;50.850;4.446;2023-01-09T13:37:52;9.90;1.00
23783;DHT22;12071;50.850;4.446;2023-01-09T13:43:03;10.20;99.90
23783;DHT22;12071;50.850;4.446;2023-01-09T13:45:32;10.40;99.90
23783;DHT22;12071;50.850;4.446;2023-01-09T13:50:43;10.60;99.90
23783;DHT22;12071;50.850;4.446;2023-01-09T13:58:28;10.40;99.90
23783;DHT22;12071;50.850;4.446;2023-01-09T14:00:59;10.20;99.90
23783;DHT22;12071;50.850;4.446;2023-01-09T14:03:27;10.10;99.90
23783;DHT22;12071;50.850;4.446;2023-01-09T14:08:28;9.90;1.00
23783;DHT22;12071;50.850;4.446;2023-01-09T14:11:00;9.90;1.00
23783;DHT22;12071;50.850;4.446;2023-01-09T14:18:31;9.30;1.00
23783;DHT22;12071;50.850;4.446;2023-01-09T14:21:06;9.20;57.30
23783;DHT22;12071;50.850;4.446;2023-01-09T14:26:43;9.00;99.90
23783;DHT22;12071;50.850;4.446;2023-01-09T14:29:41;9.00;99.90
23783;DHT22;12071;50.850;4.446;2023-01-09T14:37:24;8.80;99.90
23783;DHT22;12071;50.850;4.446;2023-01-09T14:39:51;8.70;99.90
23783;DHT22;12071;50.850;4.446;2023-01-09T14:42:23;8.70;99.90
23783;DHT22;12071;50.850;4.446;2023-01-09T14:45:05;8.80;99.90
23783;DHT22;12071;50.850;4.446;2023-01-09T14:47:53;8.80;99.90
23783;DHT22;12071;50.850;4.446;2023-01-09T14:50:52;8.80;99.90
23783;DHT22;12071;50.850;4.446;2023-01-09T14:53:25;8.70;99.90
23783;DHT22;12071;50.850;4.446;2023-01-09T14:55:59;8.70;99.90
23783;DHT22;12071;50.850;4.446;2023-01-09T14:58:35;8.50;99.90
23783;DHT22;12071;50.850;4.446;2023-01-09T15:01:04;8.50;99.90
23783;DHT22;12071;50.850;4.446;2023-01-09T15:03:55;8.60;99.90
23783;DHT22;12071;50.850;4.446;2023-01-09T15:06:29;8.80;99.90
23783;DHT22;12071;50.850;4.446;2023-01-09T15:09:03;8.80;99.90
23783;DHT22;12071;50.850;4.446;2023-01-09T15:11:29;8.80;99.90
23783;DHT22;12071;50.850;4.446;2023-01-09T15:13:56;8.80;99.90
23783;DHT22;12071;50.850;4.446;2023-01-09T15:16:24;8.70;99.90
23783;DHT22;12071;50.850;4.446;2023-01-09T15:18:56;8.80;99.90
23783;DHT22;12071;50.850;4.446;2023-01-09T15:21:25;8.70;99.90
23783;DHT22;12071;50.850;4.446;2023-01-09T15:23:51;8.50;99.90
23783;DHT22;12071;50.850;4.446;2023-01-09T15:26:29;8.40;99.90
23783;DHT22;12071;50.850;4.446;2023-01-09T15:29:10;8.40;99.90
23783;DHT22;12071;50.850;4.446;2023-01-09T15:31:39;8.30;99.90
23783;DHT22;12071;50.850;4.446;2023-01-09T15:34:06;8.30;99.90
23783;DHT22;12071;50.850;4.446;2023-01-09T15:36:31;8.40;99.90
23783;DHT22;12071;50.850;4.446;2023-01-09T15:38:58;8.40;99.90
23783;DHT22;12071;50.850;4.446;2023-01-09T15:41:26;8.40;99.90
23783;DHT22;12071;50.850;4.446;2023-01-09T15:44:25;8.30;99.90
23783;DHT22;12071;50.850;4.446;2023-01-09T15:46:56;8.40;99.90
23783;DHT22;12071;50.850;4.446;2023-01-09T15:49:22;8.30;99.90
23783;DHT22;12071;50.850;4.446;2023-01-09T15:51:48;8.20;99.90
23783;DHT22;12071;50.850;4.446;2023-01-09T15:54:16;8.20;99.90
23783;DHT22;12071;50.850;4.446;2023-01-09T15:56:44;8.10;99.90
23783;DHT22;12071;50.850;4.446;2023-01-09T15:59:27;8.00;1.00
23783;DHT22;12071;50.850;4.446;2023-01-09T16:01:59;8.00;1.00
23783;DHT22;12071;50.850;4.446;2023-01-09T16:04:45;7.90;1.00
23783;DHT22;12071;50.850;4.446;2023-01-09T16:07:13;7.90;1.00
23783;DHT22;12071;50.850;4.446;2023-01-09T16:09:47;7.90;1.00
23783;DHT22;12071;50.850;4.446;2023-01-09T16:12:21;7.90;1.00
23783;DHT22;12071;50.850;4.446;2023-01-09T16:14:59;8.00;1.00
23783;DHT22;12071;50.850;4.446;2023-01-09T16:17:26;8.00;1.00
23783;DHT22;12071;50.850;4.446;2023-01-09T16:20:11;8.00;1.00
23783;DHT22;12071;50.850;4.446;2023-01-09T16:22:51;8.00;1.00
23783;DHT22;12071;50.850;4.446;2023-01-09T16:25:32;8.00;1.00
23783;DHT22;12071;50.850;4.446;2023-01-09T16:28:23;8.00;1.00
23783;DHT22;12071;50.850;4.446;2023-01-09T16:30:58;8.00;1.00
23783;DHT22;12071;50.850;4.446;2023-01-09T16:33:26;7.90;1.00
23783;DHT22;12071;50.850;4.446;2023-01-09T16:35:53;7.90;1.00
23783;DHT22;12071;50.850;4.446;2023-01-09T16:38:19;7.90;1.00
23783;DHT22;12071;50.850;4.446;2023-01-09T16:43:42;7.80;1.00
23783;DHT22;12071;50.850;4.446;2023-01-09T16:46:08;7.90;1.00
23783;DHT22;12071;50.850;4.446;2023-01-09T16:48:33;7.80;1.00
23783;DHT22;12071;50.850;4.446;2023-01-09T16:50:59;7.80;1.00
23783;DHT22;12071;50.850;4.446;2023-01-09T16:53:24;7.80;1.00
23783;DHT22;12071;50.850;4.446;2023-01-09T16:55:52;7.70;1.00
23783;DHT22;12071;50.850;4.446;2023-01-09T17:00:49;7.70;1.00
23783;DHT22;12071;50.850;4.446;2023-01-09T17:03:16;7.70;1.00
23783;DHT22;12071;50.850;4.446;2023-01-09T17:05:42;7.70;1.00
23783;DHT22;12071;50.850;4.446;2023-01-09T17:08:24;7.50;1.00
23783;DHT22;12071;50.850;4.446;2023-01-09T17:10:51;7.60;1.00
23783;DHT22;12071;50.850;4.446;2023-01-09T17:13:17;7.70;1.00
23783;DHT22;12071;50.850;4.446;2023-01-09T17:15:43;7.60;1.00
23783;DHT22;12071;50.850;4.446;2023-01-09T17:18:17;7.70;1.00
23783;DHT22;12071;50.850;4.446;2023-01-09T17:20:45;7.70;1.00
23783;DHT22;12071;50.850;4.446;2023-01-09T17:23:11;7.80;1.00
23783;DHT22;12071;50.850;4.446;2023-01-09T17:25:37;7.80;1.00
23783;DHT22;12071;50.850;4.446;2023-01-09T17:28:21;7.80;1.00
23783;DHT22;12071;50.850;4.446;2023-01-09T17:31:09;7.80;1.00
23783;DHT22;12071;50.850;4.446;2023-01-09T17:33:36;7.80;1.00
23783;DHT22;12071;50.850;4.446;2023-01-09T17:36:14;7.80;1.00
23783;DHT22;12071;50.850;4.446;2023-01-09T17:38:41;7.70;1.00
23783;DHT22;12071;50.850;4.446;2023-01-09T17:41:11;7.60;1.00
23783;DHT22;12071;50.850;4.446;2023-01-09T17:43:37;7.70;1.00
23783;DHT22;12071;50.850;4.446;2023-01-09T17:46:02;7.70;1.00
23783;DHT22;12071;50.850;4.446;2023-01-09T17:48:28;7.60;1.00
23783;DHT22;12071;50.850;4.446;2023-01-09T17:50:54;7.70;1.00
23783;DHT22;12071;50.850;4.446;2023-01-09T17:53:19;7.60;1.00
23783;DHT22;12071;50.850;4.446;2023-01-09T17:55:47;7.50;1.00
23783;DHT22;12071;50.850;4.446;2023-01-09T17:58:27;7.50;1.00
23783;DHT22;12071;50.850;4.446;2023-01-09T18:00:54;7.40;1.00
23783;DHT22;12071;50.850;4.446;2023-01-09T18:03:20;7.50;1.00
23783;DHT22;12071;50.850;4.446;2023-01-09T18:05:47;7.40;1.00
23783;DHT22;12071;50.850;4.446;2023-01-09T18:08:13;7.40;1.00
23783;DHT22;12071;50.850;4.446;2023-01-09T18:10:39;7.30;1.00
23783;DHT22;12071;50.850;4.446;2023-01-09T18:13:05;7.40;1.00
23783;DHT22;12071;50.850;4.446;2023-01-09T18:15:31;7.60;1.00
23783;DHT22;12071;50.850;4.446;2023-01-09T18:17:59;7.60;1.00
23783;DHT22;12071;50.850;4.446;2023-01-09T18:20:25;7.60;1.00
23783;DHT22;12071;50.850;4.446;2023-01-09T18:22:51;7.50;99.90
23783;DHT22;12071;50.850;4.446;2023-01-09T18:25:17;7.50;99.90
23783;DHT22;12071;50.850;4.446;2023-01-09T18:27:42;7.50;99.90
23783;DHT22;12071;50.850;4.446;2023-01-09T18:30:08;7.60;99.90
23783;DHT22;12071;50.850;4.446;2023-01-09T18:32:34;7.70;99.90
23783;DHT22;12071;50.850;4.446;2023-01-09T18:35:00;7.60;99.90
23783;DHT22;12071;50.850;4.446;2023-01-09T18:37:26;7.60;99.90
23783;DHT22;12071;50.850;4.446;2023-01-09T18:39:52;7.70;99.90
23783;DHT22;12071;50.850;4.446;2023-01-09T18:42:19;7.60;99.90